KMKL/MKL METAR and TAF weather

Enter ICAO airport designator
Station Type Date Time Source
KMKL METAR 2020/09/19 21:53 UTC NOAA

KMKL 192153Z 09007KT 10SM CLR 23/13 A3015 RMK AO2 SLP208 T02280128


Station Type Date Time Source
KMKL Decoded METAR 2020/09/19 21:53 UTC NOAA

JACKSON MCKELLAR-SIPES RGNL, TN, United States (KMKL) 35-36N 088-55W 128M
Sep 19, 2020 - 05:53 PM EDT / 2020.09.19 2153 UTC
Wind: from the E (090 degrees) at 8 MPH (7 KT):0
Visibility: 10 mile(s):0
Sky conditions: clear
Temperature: 73.0 F (22.8 C)
Dew Point: 55.0 F (12.8 C)
Relative Humidity: 53%
Pressure (altimeter): 30.15 in. Hg (1020 hPa)
ob: KMKL 192153Z 09007KT 10SM CLR 23/13 A3015 RMK AO2 SLP208 T02280128
cycle: 22

Station Type Date Time Source
KMKL TAF 2020/09/19 18:30 UTC NOAA

TAF KMKL 191727Z 1918/2018 03012KT P6SM FEW040 SCT250
FM192000 04010KT P6SM BKN040
FM200100 VRB03KT P6SM SCT035
FM201500 07005KT P6SM SCT040

Example: see airport list